Huvudsida
METAR-TAF:

METAR-TAF

Flygplatser :

Roskildes flygplats

Roskilde, Danmark

latitud: 55-35N, longitud: 012-08E, höjd: 44 m

Aktuellt väderrapport

Denna rapport gjordes för 17 minuter sedan, klockan 22:50 UTC
Vind 15 kt från sydost
Temperatur -2°C
Fuktighet 80%
Tryck 1010 hPa
Sikt 10 km eller mer

METAR: EKRK 232250Z AUTO 13015KT 9999NDV NCD M02/M05 Q1010 R99/710195

Tid: 00:07 (23:07 UTC)

Väderprognos

Denna rapport gjordes för 2 timmar och 47 minuter sedan, klockan 20:20 UTC
Prognos gäller från 23 kl. 21 UTC till 24 kl. 06 UTC
Vind 12 kt från sydost
Sikt: 8000 m
Brutna moln på en höjd av 1500 ft
Temporärt
från 23 kl. 21 UTC till 24 kl. 06 UTC
Brutna moln på en höjd av 1200 ft

TAF: EKRK 232020Z 2321/2406 14012KT 8000 BKN015 TEMPO 2321/2406 BKN012

Aktuella väderrapporter och prognoser från 4000 flygplatser (METAR- och TAF-rapporter).

De tillgängliga stationerna syns som gula och röda prickar på kartan.

För musen över prickarna för att se namnen på stationerna.

Klicka sedan för att få väderrapporter och prognoser.

För att ändra kartan: Klicka på de gröna knapparna med ett svart kors på för att zooma in; den gröna knappen med ett streck på för att zooma ut; eller på de gröna pilarna för angränsande kartor.


METAR-TAF: